sensor_id;sensor_type;location;lat;lon;timestamp;temperature;humidity
1988;DHT22;12775;46.994;15.498;2023-09-08T00:01:42;18.40;91.90
1988;DHT22;12775;46.994;15.498;2023-09-08T00:04:09;18.40;91.60
1988;DHT22;12775;46.994;15.498;2023-09-08T00:06:36;18.30;91.60
1988;DHT22;12775;46.994;15.498;2023-09-08T00:09:03;18.30;91.30
1988;DHT22;12775;46.994;15.498;2023-09-08T00:11:30;18.30;91.30
1988;DHT22;12775;46.994;15.498;2023-09-08T00:13:57;18.20;91.60
1988;DHT22;12775;46.994;15.498;2023-09-08T00:16:23;18.20;91.80
1988;DHT22;12775;46.994;15.498;2023-09-08T00:18:50;18.20;91.90
1988;DHT22;12775;46.994;15.498;2023-09-08T00:21:16;18.20;92.50
1988;DHT22;12775;46.994;15.498;2023-09-08T00:23:43;18.20;92.40
1988;DHT22;12775;46.994;15.498;2023-09-08T00:26:10;18.20;92.00
1988;DHT22;12775;46.994;15.498;2023-09-08T00:28:36;18.10;91.60
1988;DHT22;12775;46.994;15.498;2023-09-08T00:31:03;18.10;92.40
1988;DHT22;12775;46.994;15.498;2023-09-08T00:33:29;18.00;92.40
1988;DHT22;12775;46.994;15.498;2023-09-08T00:35:56;18.00;92.30
1988;DHT22;12775;46.994;15.498;2023-09-08T00:38:23;18.00;92.20
1988;DHT22;12775;46.994;15.498;2023-09-08T00:40:49;17.90;91.90
1988;DHT22;12775;46.994;15.498;2023-09-08T00:43:16;18.00;91.60
1988;DHT22;12775;46.994;15.498;2023-09-08T00:45:42;18.00;91.40
1988;DHT22;12775;46.994;15.498;2023-09-08T00:48:10;17.90;91.90
1988;DHT22;12775;46.994;15.498;2023-09-08T00:50:37;17.90;91.50
1988;DHT22;12775;46.994;15.498;2023-09-08T00:53:05;17.80;91.40
1988;DHT22;12775;46.994;15.498;2023-09-08T00:55:31;17.80;91.60
1988;DHT22;12775;46.994;15.498;2023-09-08T00:57:57;17.80;91.50
1988;DHT22;12775;46.994;15.498;2023-09-08T01:00:24;17.80;91.80
1988;DHT22;12775;46.994;15.498;2023-09-08T01:02:50;17.70;91.80
1988;DHT22;12775;46.994;15.498;2023-09-08T01:05:17;17.70;91.90
1988;DHT22;12775;46.994;15.498;2023-09-08T01:07:44;17.70;91.90
1988;DHT22;12775;46.994;15.498;2023-09-08T01:10:10;17.70;91.80
1988;DHT22;12775;46.994;15.498;2023-09-08T01:12:37;17.60;91.70
1988;DHT22;12775;46.994;15.498;2023-09-08T01:15:06;17.60;91.50
1988;DHT22;12775;46.994;15.498;2023-09-08T01:17:31;17.60;91.80
1988;DHT22;12775;46.994;15.498;2023-09-08T01:19:59;17.50;91.70
1988;DHT22;12775;46.994;15.498;2023-09-08T01:23:11;17.50;91.70
1988;DHT22;12775;46.994;15.498;2023-09-08T01:25:18;17.50;92.00
1988;DHT22;12775;46.994;15.498;2023-09-08T01:27:46;17.40;92.00
1988;DHT22;12775;46.994;15.498;2023-09-08T01:30:12;17.40;92.00
1988;DHT22;12775;46.994;15.498;2023-09-08T01:32:38;17.40;92.20
1988;DHT22;12775;46.994;15.498;2023-09-08T01:35:05;17.40;92.10
1988;DHT22;12775;46.994;15.498;2023-09-08T01:37:32;17.40;92.10
1988;DHT22;12775;46.994;15.498;2023-09-08T01:39:58;17.40;92.00
1988;DHT22;12775;46.994;15.498;2023-09-08T01:42:25;17.40;92.30
1988;DHT22;12775;46.994;15.498;2023-09-08T01:44:52;17.30;92.10
1988;DHT22;12775;46.994;15.498;2023-09-08T01:47:18;17.30;92.20
1988;DHT22;12775;46.994;15.498;2023-09-08T01:49:45;17.30;92.40
1988;DHT22;12775;46.994;15.498;2023-09-08T01:52:11;17.30;92.20
1988;DHT22;12775;46.994;15.498;2023-09-08T01:54:38;17.30;92.20
1988;DHT22;12775;46.994;15.498;2023-09-08T01:57:05;17.30;92.60
1988;DHT22;12775;46.994;15.498;2023-09-08T01:59:31;17.20;92.10
1988;DHT22;12775;46.994;15.498;2023-09-08T02:01:58;17.20;92.40
1988;DHT22;12775;46.994;15.498;2023-09-08T02:04:24;17.20;92.30
1988;DHT22;12775;46.994;15.498;2023-09-08T02:06:51;17.10;92.60
1988;DHT22;12775;46.994;15.498;2023-09-08T02:09:18;17.10;93.10
1988;DHT22;12775;46.994;15.498;2023-09-08T02:11:44;17.10;93.00
1988;DHT22;12775;46.994;15.498;2023-09-08T02:14:11;17.10;92.80
1988;DHT22;12775;46.994;15.498;2023-09-08T02:16:37;17.00;92.90
1988;DHT22;12775;46.994;15.498;2023-09-08T02:19:04;17.10;93.10
1988;DHT22;12775;46.994;15.498;2023-09-08T02:21:31;17.00;92.80
1988;DHT22;12775;46.994;15.498;2023-09-08T02:23:57;17.00;92.50
1988;DHT22;12775;46.994;15.498;2023-09-08T02:26:24;17.00;92.20
1988;DHT22;12775;46.994;15.498;2023-09-08T02:28:50;17.00;92.60
1988;DHT22;12775;46.994;15.498;2023-09-08T02:31:17;17.00;92.90
1988;DHT22;12775;46.994;15.498;2023-09-08T02:33:43;17.00;93.00
1988;DHT22;12775;46.994;15.498;2023-09-08T02:36:10;17.00;92.50
1988;DHT22;12775;46.994;15.498;2023-09-08T02:38:37;16.90;92.50
1988;DHT22;12775;46.994;15.498;2023-09-08T02:41:04;16.90;92.50
1988;DHT22;12775;46.994;15.498;2023-09-08T02:43:31;16.90;93.00
1988;DHT22;12775;46.994;15.498;2023-09-08T02:45:57;16.90;92.80
1988;DHT22;12775;46.994;15.498;2023-09-08T02:48:24;16.80;92.60
1988;DHT22;12775;46.994;15.498;2023-09-08T02:50:50;16.80;92.40
1988;DHT22;12775;46.994;15.498;2023-09-08T02:53:17;16.80;92.20
1988;DHT22;12775;46.994;15.498;2023-09-08T02:55:45;16.80;92.40
1988;DHT22;12775;46.994;15.498;2023-09-08T02:58:10;16.80;92.30
1988;DHT22;12775;46.994;15.498;2023-09-08T03:00:37;16.80;92.50
1988;DHT22;12775;46.994;15.498;2023-09-08T03:03:04;16.80;92.00
1988;DHT22;12775;46.994;15.498;2023-09-08T03:05:31;16.70;92.00
1988;DHT22;12775;46.994;15.498;2023-09-08T03:07:57;16.70;92.10
1988;DHT22;12775;46.994;15.498;2023-09-08T03:10:23;16.70;92.40
1988;DHT22;12775;46.994;15.498;2023-09-08T03:12:50;16.70;92.60
1988;DHT22;12775;46.994;15.498;2023-09-08T03:15:17;16.60;92.60
1988;DHT22;12775;46.994;15.498;2023-09-08T03:17:45;16.60;93.70
1988;DHT22;12775;46.994;15.498;2023-09-08T03:20:11;16.60;93.70
1988;DHT22;12775;46.994;15.498;2023-09-08T03:22:38;16.60;93.60
1988;DHT22;12775;46.994;15.498;2023-09-08T03:25:05;16.60;93.40
1988;DHT22;12775;46.994;15.498;2023-09-08T03:27:31;16.60;93.30
1988;DHT22;12775;46.994;15.498;2023-09-08T03:29:58;16.50;93.10
1988;DHT22;12775;46.994;15.498;2023-09-08T03:32:25;16.50;93.40
1988;DHT22;12775;46.994;15.498;2023-09-08T03:34:51;16.40;93.50
1988;DHT22;12775;46.994;15.498;2023-09-08T03:37:18;16.40;93.60
1988;DHT22;12775;46.994;15.498;2023-09-08T03:39:44;16.40;93.50
1988;DHT22;12775;46.994;15.498;2023-09-08T03:42:11;16.40;93.50
1988;DHT22;12775;46.994;15.498;2023-09-08T03:44:38;16.40;93.60
1988;DHT22;12775;46.994;15.498;2023-09-08T03:47:04;16.40;93.60
1988;DHT22;12775;46.994;15.498;2023-09-08T03:49:31;16.40;93.00
1988;DHT22;12775;46.994;15.498;2023-09-08T03:51:57;16.30;93.10
1988;DHT22;12775;46.994;15.498;2023-09-08T03:54:25;16.30;93.20
1988;DHT22;12775;46.994;15.498;2023-09-08T03:56:52;16.30;93.00
1988;DHT22;12775;46.994;15.498;2023-09-08T03:59:18;16.30;93.30
1988;DHT22;12775;46.994;15.498;2023-09-08T04:01:45;16.30;93.20
1988;DHT22;12775;46.994;15.498;2023-09-08T04:04:11;16.30;93.20
1988;DHT22;12775;46.994;15.498;2023-09-08T04:06:38;16.30;92.90
1988;DHT22;12775;46.994;15.498;2023-09-08T04:09:04;16.30;92.90
1988;DHT22;12775;46.994;15.498;2023-09-08T04:11:31;16.20;93.00
1988;DHT22;12775;46.994;15.498;2023-09-08T04:13:58;16.20;93.10
1988;DHT22;12775;46.994;15.498;2023-09-08T04:16:25;16.20;93.10
1988;DHT22;12775;46.994;15.498;2023-09-08T04:18:52;16.20;92.80
1988;DHT22;12775;46.994;15.498;2023-09-08T04:21:18;16.20;92.70
1988;DHT22;12775;46.994;15.498;2023-09-08T04:23:45;16.10;93.10
1988;DHT22;12775;46.994;15.498;2023-09-08T04:26:12;16.10;92.80
1988;DHT22;12775;46.994;15.498;2023-09-08T04:28:38;16.10;92.90
1988;DHT22;12775;46.994;15.498;2023-09-08T04:31:05;16.10;93.00
1988;DHT22;12775;46.994;15.498;2023-09-08T04:33:31;16.10;93.20
1988;DHT22;12775;46.994;15.498;2023-09-08T04:35:58;16.10;93.10
1988;DHT22;12775;46.994;15.498;2023-09-08T04:38:25;16.00;93.00
1988;DHT22;12775;46.994;15.498;2023-09-08T04:40:51;16.00;93.00
1988;DHT22;12775;46.994;15.498;2023-09-08T04:43:18;16.00;93.10
1988;DHT22;12775;46.994;15.498;2023-09-08T04:45:45;16.00;93.20
1988;DHT22;12775;46.994;15.498;2023-09-08T04:48:11;16.00;93.60
1988;DHT22;12775;46.994;15.498;2023-09-08T04:50:38;16.00;93.90
1988;DHT22;12775;46.994;15.498;2023-09-08T04:53:05;15.90;94.10
1988;DHT22;12775;46.994;15.498;2023-09-08T04:55:31;15.80;94.10
1988;DHT22;12775;46.994;15.498;2023-09-08T04:57:58;15.90;94.60
1988;DHT22;12775;46.994;15.498;2023-09-08T05:00:25;15.80;94.20
1988;DHT22;12775;46.994;15.498;2023-09-08T05:02:51;15.80;94.30
1988;DHT22;12775;46.994;15.498;2023-09-08T05:05:18;15.80;94.40
1988;DHT22;12775;46.994;15.498;2023-09-08T05:07:44;15.80;94.50
1988;DHT22;12775;46.994;15.498;2023-09-08T05:10:11;15.80;94.80
1988;DHT22;12775;46.994;15.498;2023-09-08T05:12:38;15.80;94.90
1988;DHT22;12775;46.994;15.498;2023-09-08T05:15:05;15.80;95.40
1988;DHT22;12775;46.994;15.498;2023-09-08T05:17:32;15.80;95.70
1988;DHT22;12775;46.994;15.498;2023-09-08T05:19:59;15.70;95.70
1988;DHT22;12775;46.994;15.498;2023-09-08T05:22:26;15.80;96.40
1988;DHT22;12775;46.994;15.498;2023-09-08T05:24:52;15.90;97.20
1988;DHT22;12775;46.994;15.498;2023-09-08T05:27:19;15.90;98.00
1988;DHT22;12775;46.994;15.498;2023-09-08T05:29:45;16.00;98.70
1988;DHT22;12775;46.994;15.498;2023-09-08T05:32:13;16.60;99.40
1988;DHT22;12775;46.994;15.498;2023-09-08T05:34:41;16.60;99.40
1988;DHT22;12775;46.994;15.498;2023-09-08T05:37:08;16.90;98.80
1988;DHT22;12775;46.994;15.498;2023-09-08T05:39:34;17.10;98.70
1988;DHT22;12775;46.994;15.498;2023-09-08T05:42:01;17.40;98.90
1988;DHT22;12775;46.994;15.498;2023-09-08T05:44:28;17.90;98.40
1988;DHT22;12775;46.994;15.498;2023-09-08T05:46:54;18.50;97.50
1988;DHT22;12775;46.994;15.498;2023-09-08T05:49:21;19.10;96.50
1988;DHT22;12775;46.994;15.498;2023-09-08T05:51:47;19.70;95.50
1988;DHT22;12775;46.994;15.498;2023-09-08T05:54:14;20.10;95.00
1988;DHT22;12775;46.994;15.498;2023-09-08T05:56:41;20.50;93.90
1988;DHT22;12775;46.994;15.498;2023-09-08T05:59:07;21.00;93.80
1988;DHT22;12775;46.994;15.498;2023-09-08T06:01:34;21.30;93.40
1988;DHT22;12775;46.994;15.498;2023-09-08T06:04:01;21.90;92.60
1988;DHT22;12775;46.994;15.498;2023-09-08T06:06:28;21.90;92.60
1988;DHT22;12775;46.994;15.498;2023-09-08T06:08:54;22.00;93.10
1988;DHT22;12775;46.994;15.498;2023-09-08T06:11:21;21.90;93.20
1988;DHT22;12775;46.994;15.498;2023-09-08T06:13:48;22.30;92.80
1988;DHT22;12775;46.994;15.498;2023-09-08T06:16:15;22.60;92.30
1988;DHT22;12775;46.994;15.498;2023-09-08T06:18:42;22.60;92.30
1988;DHT22;12775;46.994;15.498;2023-09-08T06:21:09;22.80;92.30
1988;DHT22;12775;46.994;15.498;2023-09-08T06:23:35;22.70;93.40
1988;DHT22;12775;46.994;15.498;2023-09-08T06:26:02;22.70;93.50
1988;DHT22;12775;46.994;15.498;2023-09-08T06:28:30;22.80;93.50
1988;DHT22;12775;46.994;15.498;2023-09-08T06:30:56;22.80;93.40
1988;DHT22;12775;46.994;15.498;2023-09-08T06:33:24;22.80;93.30
1988;DHT22;12775;46.994;15.498;2023-09-08T06:35:50;22.70;93.90
1988;DHT22;12775;46.994;15.498;2023-09-08T06:38:17;22.60;92.60
1988;DHT22;12775;46.994;15.498;2023-09-08T06:40:45;22.60;93.50
1988;DHT22;12775;46.994;15.498;2023-09-08T06:43:11;22.60;93.80
1988;DHT22;12775;46.994;15.498;2023-09-08T06:45:38;22.70;94.30
1988;DHT22;12775;46.994;15.498;2023-09-08T06:48:05;22.70;93.10
1988;DHT22;12775;46.994;15.498;2023-09-08T06:50:31;22.70;94.20
1988;DHT22;12775;46.994;15.498;2023-09-08T06:52:58;22.80;93.80
1988;DHT22;12775;46.994;15.498;2023-09-08T06:55:25;22.70;93.00
1988;DHT22;12775;46.994;15.498;2023-09-08T06:57:51;22.80;95.50
1988;DHT22;12775;46.994;15.498;2023-09-08T07:00:18;22.90;94.10
1988;DHT22;12775;46.994;15.498;2023-09-08T07:02:45;22.90;94.00
1988;DHT22;12775;46.994;15.498;2023-09-08T07:05:11;22.90;94.30
1988;DHT22;12775;46.994;15.498;2023-09-08T07:07:38;23.00;94.80
1988;DHT22;12775;46.994;15.498;2023-09-08T07:10:05;23.10;95.20
1988;DHT22;12775;46.994;15.498;2023-09-08T07:12:31;23.10;94.70
1988;DHT22;12775;46.994;15.498;2023-09-08T07:14:58;23.10;94.70
1988;DHT22;12775;46.994;15.498;2023-09-08T07:17:26;23.30;94.00
1988;DHT22;12775;46.994;15.498;2023-09-08T07:19:52;23.30;94.00
1988;DHT22;12775;46.994;15.498;2023-09-08T07:22:19;23.30;93.20
1988;DHT22;12775;46.994;15.498;2023-09-08T07:24:45;23.40;94.30
1988;DHT22;12775;46.994;15.498;2023-09-08T07:27:13;23.40;94.00
1988;DHT22;12775;46.994;15.498;2023-09-08T07:29:40;23.50;94.50
1988;DHT22;12775;46.994;15.498;2023-09-08T07:32:07;23.50;93.40
1988;DHT22;12775;46.994;15.498;2023-09-08T07:34:33;23.60;94.60
1988;DHT22;12775;46.994;15.498;2023-09-08T07:37:00;23.70;94.70
1988;DHT22;12775;46.994;15.498;2023-09-08T07:39:27;23.80;94.20
1988;DHT22;12775;46.994;15.498;2023-09-08T07:41:54;23.80;94.20
1988;DHT22;12775;46.994;15.498;2023-09-08T07:44:20;23.90;94.50
1988;DHT22;12775;46.994;15.498;2023-09-08T07:46:47;24.00;93.70
1988;DHT22;12775;46.994;15.498;2023-09-08T07:49:13;24.00;93.50
1988;DHT22;12775;46.994;15.498;2023-09-08T07:51:40;24.10;94.80
1988;DHT22;12775;46.994;15.498;2023-09-08T07:54:07;24.20;95.10
1988;DHT22;12775;46.994;15.498;2023-09-08T07:56:33;24.30;93.80
1988;DHT22;12775;46.994;15.498;2023-09-08T07:59:00;24.40;92.50
1988;DHT22;12775;46.994;15.498;2023-09-08T08:01:26;24.50;93.10
1988;DHT22;12775;46.994;15.498;2023-09-08T08:03:53;24.60;94.20
1988;DHT22;12775;46.994;15.498;2023-09-08T08:06:20;24.70;94.00
1988;DHT22;12775;46.994;15.498;2023-09-08T08:08:46;24.80;93.40
1988;DHT22;12775;46.994;15.498;2023-09-08T08:11:15;25.10;93.40
1988;DHT22;12775;46.994;15.498;2023-09-08T08:13:41;25.20;92.10
1988;DHT22;12775;46.994;15.498;2023-09-08T08:16:08;25.10;92.10
1988;DHT22;12775;46.994;15.498;2023-09-08T08:18:34;25.30;92.20
1988;DHT22;12775;46.994;15.498;2023-09-08T08:21:01;25.40;92.00
1988;DHT22;12775;46.994;15.498;2023-09-08T08:23:27;25.60;93.10
1988;DHT22;12775;46.994;15.498;2023-09-08T08:25:54;25.60;90.00
1988;DHT22;12775;46.994;15.498;2023-09-08T08:28:21;25.80;90.50
1988;DHT22;12775;46.994;15.498;2023-09-08T08:30:47;25.90;91.10
1988;DHT22;12775;46.994;15.498;2023-09-08T08:33:14;26.00;91.50
1988;DHT22;12775;46.994;15.498;2023-09-08T08:35:40;26.10;90.70
1988;DHT22;12775;46.994;15.498;2023-09-08T08:38:07;26.30;91.20
1988;DHT22;12775;46.994;15.498;2023-09-08T08:40:33;26.50;91.60
1988;DHT22;12775;46.994;15.498;2023-09-08T08:43:00;26.60;90.10
1988;DHT22;12775;46.994;15.498;2023-09-08T08:45:27;26.70;87.80
1988;DHT22;12775;46.994;15.498;2023-09-08T08:47:53;26.70;86.20
1988;DHT22;12775;46.994;15.498;2023-09-08T08:50:20;26.90;86.70
1988;DHT22;12775;46.994;15.498;2023-09-08T08:52:47;27.00;86.50
1988;DHT22;12775;46.994;15.498;2023-09-08T08:55:13;27.10;78.90
1988;DHT22;12775;46.994;15.498;2023-09-08T08:57:41;27.00;77.30
1988;DHT22;12775;46.994;15.498;2023-09-08T09:00:08;27.10;81.50
1988;DHT22;12775;46.994;15.498;2023-09-08T09:02:35;27.20;86.80
1988;DHT22;12775;46.994;15.498;2023-09-08T09:05:01;27.30;85.50
1988;DHT22;12775;46.994;15.498;2023-09-08T09:07:28;27.40;86.80
1988;DHT22;12775;46.994;15.498;2023-09-08T09:09:55;27.60;84.10
1988;DHT22;12775;46.994;15.498;2023-09-08T09:12:21;27.70;84.10
1988;DHT22;12775;46.994;15.498;2023-09-08T09:14:51;27.80;85.40
1988;DHT22;12775;46.994;15.498;2023-09-08T09:17:14;27.80;79.10
1988;DHT22;12775;46.994;15.498;2023-09-08T09:19:42;28.20;85.50
1988;DHT22;12775;46.994;15.498;2023-09-08T09:22:08;28.10;85.40
1988;DHT22;12775;46.994;15.498;2023-09-08T09:24:38;28.30;86.60
1988;DHT22;12775;46.994;15.498;2023-09-08T09:27:04;28.30;76.90
1988;DHT22;12775;46.994;15.498;2023-09-08T09:29:30;28.30;75.80
1988;DHT22;12775;46.994;15.498;2023-09-08T09:31:57;28.40;76.50
1988;DHT22;12775;46.994;15.498;2023-09-08T09:34:23;28.50;80.30
1988;DHT22;12775;46.994;15.498;2023-09-08T09:36:50;28.60;82.40
1988;DHT22;12775;46.994;15.498;2023-09-08T09:39:18;28.60;72.70
1988;DHT22;12775;46.994;15.498;2023-09-08T09:41:45;28.70;70.90
1988;DHT22;12775;46.994;15.498;2023-09-08T09:44:10;28.70;71.90
1988;DHT22;12775;46.994;15.498;2023-09-08T09:46:37;28.70;80.20
1988;DHT22;12775;46.994;15.498;2023-09-08T09:49:03;28.60;71.80
1988;DHT22;12775;46.994;15.498;2023-09-08T09:51:30;28.50;75.60
1988;DHT22;12775;46.994;15.498;2023-09-08T09:53:57;28.60;70.10
1988;DHT22;12775;46.994;15.498;2023-09-08T09:56:23;28.70;71.80
1988;DHT22;12775;46.994;15.498;2023-09-08T09:58:50;28.80;68.50
1988;DHT22;12775;46.994;15.498;2023-09-08T10:01:17;29.00;73.40
1988;DHT22;12775;46.994;15.498;2023-09-08T10:03:44;29.00;73.40
1988;DHT22;12775;46.994;15.498;2023-09-08T10:06:11;29.10;74.10
1988;DHT22;12775;46.994;15.498;2023-09-08T10:08:39;29.30;76.10
1988;DHT22;12775;46.994;15.498;2023-09-08T10:11:07;29.40;72.30
1988;DHT22;12775;46.994;15.498;2023-09-08T10:13:38;29.40;69.20
1988;DHT22;12775;46.994;15.498;2023-09-08T10:16:02;29.50;69.90
1988;DHT22;12775;46.994;15.498;2023-09-08T10:18:29;29.70;78.90
1988;DHT22;12775;46.994;15.498;2023-09-08T10:20:57;29.70;65.70
1988;DHT22;12775;46.994;15.498;2023-09-08T10:23:26;29.80;65.70
1988;DHT22;12775;46.994;15.498;2023-09-08T10:25:50;29.80;66.60
1988;DHT22;12775;46.994;15.498;2023-09-08T10:28:17;29.70;68.10
1988;DHT22;12775;46.994;15.498;2023-09-08T10:30:44;29.70;68.20
1988;DHT22;12775;46.994;15.498;2023-09-08T10:33:10;29.80;75.90
1988;DHT22;12775;46.994;15.498;2023-09-08T10:35:37;29.90;71.00
1988;DHT22;12775;46.994;15.498;2023-09-08T10:38:47;30.10;72.30
1988;DHT22;12775;46.994;15.498;2023-09-08T10:41:25;30.10;68.50
1988;DHT22;12775;46.994;15.498;2023-09-08T10:43:45;30.10;65.40
1988;DHT22;12775;46.994;15.498;2023-09-08T10:46:21;30.20;71.10
1988;DHT22;12775;46.994;15.498;2023-09-08T10:48:42;30.30;67.00
1988;DHT22;12775;46.994;15.498;2023-09-08T10:51:14;30.40;75.30
1988;DHT22;12775;46.994;15.498;2023-09-08T10:53:41;30.00;66.60
1988;DHT22;12775;46.994;15.498;2023-09-08T10:56:08;30.00;66.50
1988;DHT22;12775;46.994;15.498;2023-09-08T10:58:36;30.10;71.60
1988;DHT22;12775;46.994;15.498;2023-09-08T11:01:02;30.20;68.40
1988;DHT22;12775;46.994;15.498;2023-09-08T11:06:01;30.30;67.80
1988;DHT22;12775;46.994;15.498;2023-09-08T11:08:28;30.10;65.90
1988;DHT22;12775;46.994;15.498;2023-09-08T11:10:56;30.10;66.00
1988;DHT22;12775;46.994;15.498;2023-09-08T11:13:22;30.00;65.50
1988;DHT22;12775;46.994;15.498;2023-09-08T11:15:52;29.90;64.60
1988;DHT22;12775;46.994;15.498;2023-09-08T11:18:26;29.70;66.30
1988;DHT22;12775;46.994;15.498;2023-09-08T11:20:52;29.40;64.70
1988;DHT22;12775;46.994;15.498;2023-09-08T11:23:20;29.50;66.20
1988;DHT22;12775;46.994;15.498;2023-09-08T11:25:46;29.70;72.00
1988;DHT22;12775;46.994;15.498;2023-09-08T11:28:12;29.80;68.20
1988;DHT22;12775;46.994;15.498;2023-09-08T11:30:41;29.70;66.70
1988;DHT22;12775;46.994;15.498;2023-09-08T11:33:14;29.60;69.40
1988;DHT22;12775;46.994;15.498;2023-09-08T11:35:41;29.70;66.10
1988;DHT22;12775;46.994;15.498;2023-09-08T11:38:09;29.80;63.20
1988;DHT22;12775;46.994;15.498;2023-09-08T11:40:35;29.80;63.20
1988;DHT22;12775;46.994;15.498;2023-09-08T11:43:01;29.80;62.60
1988;DHT22;12775;46.994;15.498;2023-09-08T11:45:28;29.60;62.50
1988;DHT22;12775;46.994;15.498;2023-09-08T11:47:54;29.60;62.60
1988;DHT22;12775;46.994;15.498;2023-09-08T11:50:21;29.50;65.40
1988;DHT22;12775;46.994;15.498;2023-09-08T11:52:48;29.40;63.90
1988;DHT22;12775;46.994;15.498;2023-09-08T11:55:14;29.50;64.10
1988;DHT22;12775;46.994;15.498;2023-09-08T11:57:42;29.70;63.00
1988;DHT22;12775;46.994;15.498;2023-09-08T12:00:09;29.70;63.00
1988;DHT22;12775;46.994;15.498;2023-09-08T12:02:36;29.60;63.70
1988;DHT22;12775;46.994;15.498;2023-09-08T12:05:03;29.60;62.20
1988;DHT22;12775;46.994;15.498;2023-09-08T12:07:29;29.50;61.40
1988;DHT22;12775;46.994;15.498;2023-09-08T12:09:56;29.40;63.20
1988;DHT22;12775;46.994;15.498;2023-09-08T12:12:23;29.50;63.50
1988;DHT22;12775;46.994;15.498;2023-09-08T12:14:49;29.30;61.80
1988;DHT22;12775;46.994;15.498;2023-09-08T12:17:17;29.60;63.20
1988;DHT22;12775;46.994;15.498;2023-09-08T12:19:43;29.50;63.10
1988;DHT22;12775;46.994;15.498;2023-09-08T12:22:10;29.70;60.80
1988;DHT22;12775;46.994;15.498;2023-09-08T12:24:46;29.90;68.40
1988;DHT22;12775;46.994;15.498;2023-09-08T12:27:12;30.10;63.40
1988;DHT22;12775;46.994;15.498;2023-09-08T12:29:38;30.30;64.20
1988;DHT22;12775;46.994;15.498;2023-09-08T12:32:05;30.40;70.00
1988;DHT22;12775;46.994;15.498;2023-09-08T12:34:32;30.40;66.20
1988;DHT22;12775;46.994;15.498;2023-09-08T12:36:58;30.50;67.60
1988;DHT22;12775;46.994;15.498;2023-09-08T12:39:25;30.40;61.20
1988;DHT22;12775;46.994;15.498;2023-09-08T12:41:51;30.20;60.30
1988;DHT22;12775;46.994;15.498;2023-09-08T12:44:18;30.00;59.20
1988;DHT22;12775;46.994;15.498;2023-09-08T12:46:45;30.10;59.70
1988;DHT22;12775;46.994;15.498;2023-09-08T12:49:12;30.30;59.00
1988;DHT22;12775;46.994;15.498;2023-09-08T12:51:39;30.50;64.60
1988;DHT22;12775;46.994;15.498;2023-09-08T12:54:06;30.50;64.50
1988;DHT22;12775;46.994;15.498;2023-09-08T12:56:33;30.40;58.50
1988;DHT22;12775;46.994;15.498;2023-09-08T12:59:00;30.40;58.50
1988;DHT22;12775;46.994;15.498;2023-09-08T13:01:28;30.40;60.20
1988;DHT22;12775;46.994;15.498;2023-09-08T13:03:53;30.40;59.40
1988;DHT22;12775;46.994;15.498;2023-09-08T13:06:20;30.50;60.20
1988;DHT22;12775;46.994;15.498;2023-09-08T13:08:46;30.50;62.90
1988;DHT22;12775;46.994;15.498;2023-09-08T13:11:13;30.30;62.60
1988;DHT22;12775;46.994;15.498;2023-09-08T13:13:40;30.30;60.60
1988;DHT22;12775;46.994;15.498;2023-09-08T13:16:07;30.30;60.60
1988;DHT22;12775;46.994;15.498;2023-09-08T13:18:34;30.40;61.00
1988;DHT22;12775;46.994;15.498;2023-09-08T13:21:01;30.40;59.90
1988;DHT22;12775;46.994;15.498;2023-09-08T13:23:28;30.50;58.60
1988;DHT22;12775;46.994;15.498;2023-09-08T13:25:54;30.30;59.90
1988;DHT22;12775;46.994;15.498;2023-09-08T13:28:21;30.30;61.20
1988;DHT22;12775;46.994;15.498;2023-09-08T13:30:48;30.20;61.40
1988;DHT22;12775;46.994;15.498;2023-09-08T13:33:15;30.20;61.40
1988;DHT22;12775;46.994;15.498;2023-09-08T13:35:41;30.20;61.10
1988;DHT22;12775;46.994;15.498;2023-09-08T13:38:09;30.20;58.80
1988;DHT22;12775;46.994;15.498;2023-09-08T13:40:35;30.20;58.80
1988;DHT22;12775;46.994;15.498;2023-09-08T13:43:02;30.10;60.80
1988;DHT22;12775;46.994;15.498;2023-09-08T13:45:29;30.10;59.70
1988;DHT22;12775;46.994;15.498;2023-09-08T13:47:57;30.10;59.70
1988;DHT22;12775;46.994;15.498;2023-09-08T13:50:23;30.10;65.80
1988;DHT22;12775;46.994;15.498;2023-09-08T13:52:50;30.20;63.90
1988;DHT22;12775;46.994;15.498;2023-09-08T13:55:17;30.30;60.50
1988;DHT22;12775;46.994;15.498;2023-09-08T13:57:44;30.30;63.40
1988;DHT22;12775;46.994;15.498;2023-09-08T14:00:11;30.30;63.30
1988;DHT22;12775;46.994;15.498;2023-09-08T14:02:38;30.40;58.90
1988;DHT22;12775;46.994;15.498;2023-09-08T14:05:05;30.40;59.50
1988;DHT22;12775;46.994;15.498;2023-09-08T14:07:31;30.50;60.00
1988;DHT22;12775;46.994;15.498;2023-09-08T14:09:58;30.50;61.90
1988;DHT22;12775;46.994;15.498;2023-09-08T14:12:25;30.40;59.90
1988;DHT22;12775;46.994;15.498;2023-09-08T14:14:52;30.30;60.30
1988;DHT22;12775;46.994;15.498;2023-09-08T14:17:19;30.30;64.70
1988;DHT22;12775;46.994;15.498;2023-09-08T14:19:46;29.90;61.90
1988;DHT22;12775;46.994;15.498;2023-09-08T14:22:13;29.90;61.80
1988;DHT22;12775;46.994;15.498;2023-09-08T14:24:39;30.00;61.30
1988;DHT22;12775;46.994;15.498;2023-09-08T14:27:06;30.10;61.70
1988;DHT22;12775;46.994;15.498;2023-09-08T14:29:33;30.00;61.40
1988;DHT22;12775;46.994;15.498;2023-09-08T14:32:00;29.80;62.00
1988;DHT22;12775;46.994;15.498;2023-09-08T14:34:26;29.90;62.40
1988;DHT22;12775;46.994;15.498;2023-09-08T14:36:54;29.90;63.10
1988;DHT22;12775;46.994;15.498;2023-09-08T14:39:21;29.80;60.40
1988;DHT22;12775;46.994;15.498;2023-09-08T14:41:48;29.70;60.50
1988;DHT22;12775;46.994;15.498;2023-09-08T14:44:15;29.70;60.40
1988;DHT22;12775;46.994;15.498;2023-09-08T14:46:41;29.70;61.30
1988;DHT22;12775;46.994;15.498;2023-09-08T14:49:08;29.50;60.70
1988;DHT22;12775;46.994;15.498;2023-09-08T14:51:34;29.40;63.20
1988;DHT22;12775;46.994;15.498;2023-09-08T14:54:01;29.20;63.50
1988;DHT22;12775;46.994;15.498;2023-09-08T14:56:28;29.20;63.80
1988;DHT22;12775;46.994;15.498;2023-09-08T14:58:54;29.10;61.00
1988;DHT22;12775;46.994;15.498;2023-09-08T15:01:21;29.20;63.30
1988;DHT22;12775;46.994;15.498;2023-09-08T15:03:47;29.20;64.00
1988;DHT22;12775;46.994;15.498;2023-09-08T15:06:14;29.40;63.50
1988;DHT22;12775;46.994;15.498;2023-09-08T15:08:40;29.40;64.20
1988;DHT22;12775;46.994;15.498;2023-09-08T15:11:07;29.10;64.00
1988;DHT22;12775;46.994;15.498;2023-09-08T15:13:34;29.20;62.80
1988;DHT22;12775;46.994;15.498;2023-09-08T15:16:00;29.20;61.80
1988;DHT22;12775;46.994;15.498;2023-09-08T15:18:27;29.20;61.70
1988;DHT22;12775;46.994;15.498;2023-09-08T15:20:54;29.20;61.50
1988;DHT22;12775;46.994;15.498;2023-09-08T15:23:21;29.20;63.60
1988;DHT22;12775;46.994;15.498;2023-09-08T15:25:55;29.10;61.90
1988;DHT22;12775;46.994;15.498;2023-09-08T15:28:21;28.90;61.20
1988;DHT22;12775;46.994;15.498;2023-09-08T15:30:49;29.00;63.10